Time;durP1;ratioP1;P1;durP2;ratioP2;P2;SDS_P1;SDS_P2;PMS_P1;PMS_P2;Temp;Humidity;BMP_temperature;BMP_pressure;BME280_temperature;BME280_humidity;BME280_pressure;Samples;Min_cycle;Max_cycle;Signal;HPM_P1;HPM_P2
2022/01/26 00:00:41;;;;;;;173.30;57.90;;;5.30;99.90;;;;;;7341423;19;110738;-82
2022/01/26 00:06:00;;;;;;;165.93;54.83;;;5.30;99.90;;;;;;7339414;19;112075;-82
2022/01/26 00:08:27;;;;;;;172.80;56.97;;;5.30;99.90;;;;;;7338112;19;112098;-82
2022/01/26 00:10:54;;;;;;;181.50;61.73;;;5.20;99.90;;;;;;7338714;19;114284;-81
2022/01/26 00:13:21;;;;;;;173.50;59.83;;;5.30;99.90;;;;;;7340382;19;112303;-81
2022/01/26 00:15:48;;;;;;;174.17;58.10;;;5.30;99.90;;;;;;7338005;19;112918;-82
2022/01/26 00:18:18;;;;;;;166.93;56.07;;;5.20;99.90;;;;;;7340807;19;112368;-82
2022/01/26 00:20:53;;;;;;;168.80;56.70;;;5.20;99.90;;;;;;7336875;19;111940;-82
2022/01/26 00:23:51;;;;;;;157.50;55.03;;;5.30;99.90;;;;;;7337605;19;112513;-81
2022/01/26 00:29:13;;;;;;;163.93;57.57;;;5.30;99.90;;;;;;7333560;19;112234;-81
2022/01/26 00:40:25;;;;;;;170.77;56.23;;;5.30;99.90;;;;;;7339961;19;112068;-82
2022/01/26 00:42:55;;;;;;;170.67;55.63;;;5.30;99.90;;;;;;7337699;19;112626;-81
2022/01/26 00:45:27;;;;;;;165.47;56.07;;;5.20;99.90;;;;;;7339534;19;115468;-82
2022/01/26 00:47:54;;;;;;;163.97;56.57;;;5.20;99.90;;;;;;7335330;19;112069;-81
2022/01/26 00:50:22;;;;;;;168.20;56.40;;;5.20;99.90;;;;;;7341010;19;112897;-81
2022/01/26 00:52:53;;;;;;;170.43;55.87;;;5.20;99.90;;;;;;7340282;19;111586;-81
2022/01/26 00:55:21;;;;;;;172.50;56.97;;;5.20;99.90;;;;;;7336908;19;113173;-81
2022/01/26 00:57:49;;;;;;;172.63;56.77;;;5.20;99.90;;;;;;7339875;19;112088;-81
2022/01/26 01:00:25;;;;;;;169.80;58.13;;;5.20;99.90;;;;;;7333178;19;112037;-81
2022/01/26 01:02:54;;;;;;;162.98;58.30;;;5.30;99.90;;;;;;7338695;19;112193;-82
2022/01/26 01:05:27;;;;;;;161.10;56.97;;;5.20;99.90;;;;;;7334419;19;112549;-81
2022/01/26 01:08:02;;;;;;;162.47;55.33;;;5.20;99.90;;;;;;7338239;19;112043;-81
2022/01/26 01:10:30;;;;;;;165.40;57.13;;;5.10;99.90;;;;;;7337892;19;112342;-81
2022/01/26 01:12:59;;;;;;;162.80;57.03;;;5.10;99.90;;;;;;7341461;19;112488;-80
2022/01/26 01:15:28;;;;;;;146.70;56.23;;;5.10;99.90;;;;;;7338802;19;112796;-81
2022/01/26 01:31:59;;;;;;;140.03;52.37;;;5.00;99.90;;;;;;7335834;19;112204;-81
2022/01/26 01:34:35;;;;;;;137.13;52.63;;;5.00;99.90;;;;;;7340428;19;112583;-81
2022/01/26 01:37:09;;;;;;;135.43;53.13;;;5.10;99.90;;;;;;7343110;19;114645;-81
2022/01/26 01:39:37;;;;;;;137.30;51.93;;;5.10;99.90;;;;;;7342200;19;112783;-81
2022/01/26 01:42:08;;;;;;;136.77;53.27;;;5.10;99.90;;;;;;7345891;19;111889;-80
2022/01/26 01:44:36;;;;;;;137.33;52.27;;;5.10;99.90;;;;;;7341930;19;112137;-81
2022/01/26 01:47:06;;;;;;;131.90;51.67;;;5.10;99.90;;;;;;7343596;19;113098;-81
2022/01/26 01:49:34;;;;;;;129.67;50.37;;;5.10;99.90;;;;;;7342650;19;111492;-81
2022/01/26 01:52:04;;;;;;;128.27;50.07;;;5.10;99.90;;;;;;7344236;19;112846;-83
2022/01/26 01:54:32;;;;;;;133.07;50.73;;;5.10;99.90;;;;;;7341659;19;112376;-81
2022/01/26 01:56:59;;;;;;;138.87;52.27;;;5.10;99.90;;;;;;7349180;19;112128;-82
2022/01/26 01:59:31;;;;;;;144.80;53.90;;;5.10;99.90;;;;;;7346764;19;113005;-84
2022/01/26 02:02:00;;;;;;;132.83;50.60;;;5.10;99.90;;;;;;7342095;19;112020;-84
2022/01/26 02:04:28;;;;;;;130.43;51.27;;;5.10;99.90;;;;;;7345821;19;112592;-80
2022/01/26 02:06:56;;;;;;;132.27;52.07;;;5.10;99.90;;;;;;7341916;19;115494;-81
2022/01/26 02:09:23;;;;;;;130.77;51.57;;;5.10;99.90;;;;;;7344846;19;111949;-80
2022/01/26 02:11:53;;;;;;;131.93;51.63;;;5.10;99.90;;;;;;7342261;19;115227;-81
2022/01/26 02:14:32;;;;;;;131.37;50.80;;;5.10;99.90;;;;;;7341161;19;112833;-80
2022/01/26 02:17:15;;;;;;;132.27;51.23;;;5.10;99.90;;;;;;7343837;19;113048;-84
2022/01/26 02:52:52;;;;;;;140.40;51.20;;;5.10;99.90;;;;;;7342455;19;112183;-82
2022/01/26 02:55:36;;;;;;;135.90;51.50;;;5.10;99.90;;;;;;7339764;19;111749;-80
2022/01/26 03:03:24;;;;;;;149.57;53.20;;;5.10;99.90;;;;;;7342407;19;112361;-83
2022/01/26 03:06:03;;;;;;;142.27;52.97;;;5.00;99.90;;;;;;7343217;19;112926;-84
2022/01/26 03:08:41;;;;;;;143.73;52.83;;;5.10;99.90;;;;;;7344899;19;115072;-84
2022/01/26 03:11:11;;;;;;;143.63;52.03;;;5.10;99.90;;;;;;7341305;19;113003;-81
2022/01/26 03:13:54;;;;;;;146.07;52.37;;;5.10;99.90;;;;;;7341870;19;114655;-83
2022/01/26 03:16:36;;;;;;;154.33;55.10;;;5.10;99.90;;;;;;7340872;19;112248;-83
2022/01/26 03:19:17;;;;;;;144.63;53.03;;;5.10;99.90;;;;;;7343123;19;111096;-83
2022/01/26 03:22:05;;;;;;;140.07;52.77;;;5.10;99.90;;;;;;7339739;19;111774;-82
2022/01/26 03:33:08;;;;;;;147.68;54.33;;;5.00;99.90;;;;;;7347646;19;112570;-81
2022/01/26 03:38:21;;;;;;;149.07;53.83;;;5.00;99.90;;;;;;7342650;19;111379;-83
2022/01/26 03:40:57;;;;;;;146.30;54.50;;;5.00;99.90;;;;;;7339227;19;112438;-83
2022/01/26 03:43:24;;;;;;;151.13;55.83;;;5.00;99.90;;;;;;7340216;19;112089;-81
2022/01/26 03:45:51;;;;;;;150.27;53.80;;;5.00;99.90;;;;;;7342785;19;112124;-81
2022/01/26 03:48:18;;;;;;;164.40;56.33;;;5.10;99.90;;;;;;7338166;19;112588;-82
2022/01/26 03:50:45;;;;;;;167.27;57.73;;;5.00;99.90;;;;;;7340785;19;112545;-83
2022/01/26 03:53:12;;;;;;;156.03;56.87;;;5.00;99.90;;;;;;7342027;19;112232;-84
2022/01/26 03:55:39;;;;;;;;;;;5.00;99.90;;;;;;7341233;19;114750;-81
2022/01/26 03:58:06;;;;;;;156.17;54.43;;;5.00;99.90;;;;;;7343715;19;114547;-81
2022/01/26 04:00:33;;;;;;;169.97;58.27;;;4.90;99.90;;;;;;7339383;19;112933;-80
2022/01/26 04:03:00;;;;;;;167.97;58.27;;;4.90;99.90;;;;;;7340345;19;111860;-81
2022/01/26 04:05:28;;;;;;;162.67;57.47;;;4.80;99.90;;;;;;7339210;19;112472;-82
2022/01/26 04:08:02;;;;;;;172.57;58.67;;;4.80;99.90;;;;;;7343567;19;115981;-81
2022/01/26 04:12:59;;;;;;;166.13;58.10;;;4.80;99.90;;;;;;7341115;19;115546;-83
2022/01/26 04:15:30;;;;;;;;;;;4.80;99.90;;;;;;7342921;19;115718;-81
2022/01/26 04:17:58;;;;;;;164.57;56.63;;;4.80;99.90;;;;;;7345953;19;114881;-80
2022/01/26 04:20:29;;;;;;;167.87;57.23;;;4.80;99.90;;;;;;7339095;19;111802;-83
2022/01/26 04:25:53;;;;;;;170.70;55.93;;;4.90;99.90;;;;;;7340112;19;112384;-81
2022/01/26 04:28:27;;;;;;;170.90;58.50;;;4.90;99.90;;;;;;7338415;19;112943;-83
2022/01/26 04:30:54;;;;;;;173.33;58.33;;;5.00;99.90;;;;;;7339169;19;111536;-82
2022/01/26 04:33:21;;;;;;;163.17;58.43;;;5.00;99.90;;;;;;7337441;19;114650;-81
2022/01/26 04:35:48;;;;;;;168.23;57.60;;;5.00;99.90;;;;;;7338699;19;114527;-80
2022/01/26 04:40:55;;;;;;;174.47;59.53;;;4.90;99.90;;;;;;7340062;19;115688;-82
2022/01/26 04:43:26;;;;;;;171.37;58.70;;;4.90;99.90;;;;;;7339577;19;115189;-80
2022/01/26 04:45:53;;;;;;;171.17;59.53;;;4.90;99.90;;;;;;7337095;19;112369;-81
2022/01/26 04:48:21;;;;;;;172.37;58.27;;;4.90;99.90;;;;;;7341777;19;116259;-83
2022/01/26 04:50:48;;;;;;;174.43;60.30;;;4.90;99.90;;;;;;7335522;19;113863;-81
2022/01/26 04:53:15;;;;;;;172.60;59.10;;;4.90;99.90;;;;;;7337570;19;115208;-83
2022/01/26 04:55:42;;;;;;;167.53;58.40;;;4.90;99.90;;;;;;7337592;19;112811;-83
2022/01/26 04:58:09;;;;;;;169.43;58.10;;;4.90;99.90;;;;;;7337147;19;111888;-81
2022/01/26 05:00:36;;;;;;;167.80;58.33;;;4.90;99.90;;;;;;7345698;19;114606;-82
2022/01/26 05:03:03;;;;;;;170.90;60.37;;;4.90;99.90;;;;;;7338522;19;115552;-83
2022/01/26 05:05:30;;;;;;;173.60;58.77;;;4.90;99.90;;;;;;7338030;19;112201;-81
2022/01/26 05:07:57;;;;;;;;;;;4.90;99.90;;;;;;7337365;19;112813;-81
2022/01/26 05:10:24;;;;;;;171.30;57.87;;;4.80;99.90;;;;;;7343875;19;110550;-84
2022/01/26 05:12:51;;;;;;;;;;;4.80;99.90;;;;;;7337367;19;111764;-83
2022/01/26 05:15:21;;;;;;;171.07;56.40;;;4.90;99.90;;;;;;7345853;19;111058;-83
2022/01/26 05:17:49;;;;;;;170.10;58.73;;;4.80;99.90;;;;;;7337780;19;111993;-83
2022/01/26 05:20:17;;;;;;;170.43;56.87;;;4.80;99.90;;;;;;7338600;19;112446;-81
2022/01/26 05:22:44;;;;;;;167.30;57.17;;;4.80;99.90;;;;;;7342733;19;115133;-82
2022/01/26 05:25:13;;;;;;;171.33;58.13;;;4.80;99.90;;;;;;7336121;19;114529;-81
2022/01/26 05:27:40;;;;;;;164.97;58.37;;;4.80;99.90;;;;;;7337991;19;114001;-82
2022/01/26 05:30:08;;;;;;;169.53;58.80;;;4.80;99.90;;;;;;7334746;19;112908;-81
2022/01/26 05:32:35;;;;;;;172.73;59.13;;;4.80;99.90;;;;;;7337793;19;112503;-83
2022/01/26 05:35:03;;;;;;;162.40;56.57;;;4.80;99.90;;;;;;7335985;19;115267;-82
2022/01/26 05:37:30;;;;;;;166.53;58.37;;;4.80;99.90;;;;;;7339248;19;112055;-83
2022/01/26 05:39:57;;;;;;;169.93;55.80;;;4.80;99.90;;;;;;7334450;19;114794;-82
2022/01/26 05:42:24;;;;;;;168.93;58.53;;;4.90;99.90;;;;;;7336544;19;112512;-84
2022/01/26 05:44:53;;;;;;;179.63;58.37;;;4.90;99.90;;;;;;7341261;19;112085;-80
2022/01/26 05:47:20;;;;;;;168.33;57.20;;;4.80;99.90;;;;;;7336671;19;112352;-81
2022/01/26 05:49:48;;;;;;;177.43;57.53;;;4.90;99.90;;;;;;7338931;19;114621;-81
2022/01/26 05:52:15;;;;;;;180.37;58.93;;;4.80;99.90;;;;;;7334666;19;115295;-82
2022/01/26 05:54:42;;;;;;;166.13;56.03;;;4.80;99.90;;;;;;7338932;19;111723;-83
2022/01/26 05:57:09;;;;;;;174.60;58.17;;;4.80;99.90;;;;;;7332376;19;110512;-81
2022/01/26 05:59:36;;;;;;;178.93;57.10;;;4.80;99.90;;;;;;7337079;19;112545;-81
2022/01/26 06:02:04;;;;;;;167.07;54.43;;;4.80;99.90;;;;;;7333600;19;112407;-80
2022/01/26 06:04:31;;;;;;;180.23;55.67;;;4.80;99.90;;;;;;7341319;19;112608;-83
2022/01/26 06:06:58;;;;;;;169.37;53.37;;;4.80;99.90;;;;;;7335248;19;116753;-82
2022/01/26 06:09:25;;;;;;;174.97;53.00;;;4.80;99.90;;;;;;7332457;19;112648;-81
2022/01/26 06:11:52;;;;;;;177.33;52.73;;;4.70;99.90;;;;;;7329213;19;112326;-80
2022/01/26 06:14:20;;;;;;;173.83;52.93;;;4.70;99.90;;;;;;7329113;19;113133;-79
2022/01/26 06:16:47;;;;;;;169.97;50.10;;;4.70;99.90;;;;;;7333982;19;111976;-81
2022/01/26 06:19:14;;;;;;;163.33;50.20;;;4.70;99.90;;;;;;7332505;19;111997;-81
2022/01/26 06:21:41;;;;;;;158.60;48.53;;;4.70;99.90;;;;;;7334771;19;112610;-80
2022/01/26 06:24:08;;;;;;;176.37;49.90;;;4.70;99.90;;;;;;7338307;19;113333;-80
2022/01/26 06:26:35;;;;;;;163.40;48.97;;;4.70;99.90;;;;;;7345993;19;112782;-81
2022/01/26 06:29:02;;;;;;;157.00;46.93;;;4.70;99.90;;;;;;7340315;19;111770;-80
2022/01/26 06:31:29;;;;;;;159.63;46.57;;;4.70;99.90;;;;;;7343103;19;112295;-80
2022/01/26 06:33:57;;;;;;;164.27;47.00;;;4.70;99.90;;;;;;7340739;19;112422;-81
2022/01/26 06:36:24;;;;;;;176.80;51.27;;;4.70;99.90;;;;;;7338642;19;112629;-80
2022/01/26 06:38:51;;;;;;;162.83;48.57;;;4.70;99.90;;;;;;7341300;19;111162;-81
2022/01/26 06:41:23;;;;;;;173.87;51.37;;;4.70;99.90;;;;;;7336276;19;113245;-80
2022/01/26 06:43:58;;;;;;;162.47;48.53;;;4.70;99.90;;;;;;7340174;19;112875;-80
2022/01/26 06:46:35;;;;;;;170.80;51.17;;;4.60;99.90;;;;;;7343687;19;112302;-80
2022/01/26 06:49:28;;;;;;;176.52;50.63;;;4.60;99.90;;;;;;7346073;19;112504;-80
2022/01/26 06:51:51;;;;;;;182.43;50.00;;;4.50;99.90;;;;;;7343090;19;112492;-79
2022/01/26 06:54:18;;;;;;;179.73;49.73;;;4.50;99.90;;;;;;7339084;19;113050;-80
2022/01/26 06:56:45;;;;;;;187.83;49.67;;;4.40;99.90;;;;;;7341885;19;112989;-80
2022/01/26 06:59:18;;;;;;;177.13;49.87;;;4.40;99.90;;;;;;7340989;19;112482;-79
2022/01/26 07:01:45;;;;;;;180.47;52.27;;;4.40;99.90;;;;;;7342996;19;112619;-80
2022/01/26 07:04:13;;;;;;;177.30;50.37;;;4.30;99.90;;;;;;7341153;19;112500;-80
2022/01/26 07:06:40;;;;;;;176.83;49.57;;;4.40;99.90;;;;;;7341615;19;114609;-80
2022/01/26 07:09:07;;;;;;;175.97;51.23;;;4.40;99.90;;;;;;7339271;19;112943;-80
2022/01/26 07:11:34;;;;;;;179.57;51.30;;;4.30;99.90;;;;;;7345307;19;113804;-80
2022/01/26 07:14:03;;;;;;;181.93;49.40;;;4.30;99.90;;;;;;7342325;19;112622;-80
2022/01/26 07:22:01;;;;;;;170.57;48.43;;;4.30;99.90;;;;;;7340447;19;112028;-80
2022/01/26 07:24:28;;;;;;;170.40;50.30;;;4.40;99.90;;;;;;7340438;19;112114;-80
2022/01/26 07:26:55;;;;;;;183.30;50.20;;;4.40;99.90;;;;;;7342730;19;112013;-79
2022/01/26 07:29:24;;;;;;;173.40;49.47;;;4.40;99.90;;;;;;7339184;19;112643;-79
2022/01/26 07:31:51;;;;;;;173.70;50.50;;;4.40;99.90;;;;;;7342768;19;112127;-78
2022/01/26 07:34:22;;;;;;;172.73;48.10;;;4.40;99.90;;;;;;7344194;19;113711;-79
2022/01/26 07:36:52;;;;;;;176.40;50.40;;;4.40;99.90;;;;;;7343291;19;111953;-80
2022/01/26 07:39:30;;;;;;;172.60;48.13;;;4.40;99.90;;;;;;7339345;19;111550;-80
2022/01/26 07:41:58;;;;;;;170.37;48.33;;;4.40;99.90;;;;;;7341188;19;113355;-79
2022/01/26 07:44:25;;;;;;;171.33;48.90;;;4.30;99.90;;;;;;7338536;19;112951;-79
2022/01/26 07:46:52;;;;;;;172.27;48.23;;;4.40;99.90;;;;;;7341144;19;112458;-79
2022/01/26 07:49:19;;;;;;;160.20;47.93;;;4.40;99.90;;;;;;7340032;19;112939;-79
2022/01/26 07:51:49;;;;;;;173.93;48.73;;;4.40;99.90;;;;;;7340053;19;110646;-79
2022/01/26 07:54:17;;;;;;;162.77;47.70;;;4.40;99.90;;;;;;7340408;19;112525;-79
2022/01/26 07:56:45;;;;;;;167.10;49.93;;;4.40;99.90;;;;;;7344428;19;112870;-80
2022/01/26 07:59:12;;;;;;;167.97;49.07;;;4.40;99.90;;;;;;7339903;19;113266;-79
2022/01/26 08:01:39;;;;;;;170.70;48.47;;;4.40;99.90;;;;;;7336594;19;112366;-79
2022/01/26 08:04:07;;;;;;;173.87;49.70;;;4.40;99.90;;;;;;7339361;19;112601;-79
2022/01/26 08:06:38;;;;;;;158.73;47.10;;;4.40;99.90;;;;;;7338026;19;112645;-80
2022/01/26 08:09:05;;;;;;;164.67;48.43;;;4.40;99.90;;;;;;7337456;19;112576;-80
2022/01/26 08:11:32;;;;;;;164.40;47.73;;;4.40;99.90;;;;;;7339893;19;112037;-79
2022/01/26 08:13:59;;;;;;;162.70;48.30;;;4.40;99.90;;;;;;7339124;19;112282;-80
2022/01/26 08:16:25;;;;;;;150.87;46.30;;;4.40;99.90;;;;;;7345530;19;112591;-80
2022/01/26 08:18:53;;;;;;;152.17;45.70;;;4.40;99.90;;;;;;7337930;19;112689;-80
2022/01/26 08:21:20;;;;;;;151.70;48.60;;;4.40;99.90;;;;;;7338587;19;112827;-80
2022/01/26 08:23:48;;;;;;;150.77;46.30;;;4.40;99.90;;;;;;7334458;19;112265;-80
2022/01/26 08:26:20;;;;;;;153.60;47.57;;;4.50;99.90;;;;;;7340781;19;110245;-79
2022/01/26 08:28:53;;;;;;;144.63;46.70;;;4.50;99.90;;;;;;7336450;19;112595;-80
2022/01/26 08:31:20;;;;;;;139.77;46.30;;;4.40;99.90;;;;;;7339349;19;112147;-80
2022/01/26 08:33:47;;;;;;;153.33;48.33;;;4.50;99.90;;;;;;7339097;19;111998;-81
2022/01/26 08:36:16;;;;;;;159.77;48.13;;;4.50;99.90;;;;;;7336760;19;113306;-80
2022/01/26 08:38:43;;;;;;;146.27;47.03;;;4.50;99.90;;;;;;7346205;19;112315;-79
2022/01/26 08:41:11;;;;;;;145.23;46.07;;;4.50;99.90;;;;;;7337318;19;112679;-80
2022/01/26 08:43:38;;;;;;;152.30;48.13;;;4.50;99.90;;;;;;7338846;19;112156;-80
2022/01/26 08:46:05;;;;;;;150.60;47.43;;;4.50;99.90;;;;;;7335982;19;112057;-80
2022/01/26 08:48:33;;;;;;;150.47;47.10;;;4.50;99.90;;;;;;7339583;19;113181;-78
2022/01/26 08:51:00;;;;;;;149.33;46.57;;;4.50;99.90;;;;;;7339456;19;112219;-80
2022/01/26 08:53:27;;;;;;;146.20;48.27;;;4.60;99.90;;;;;;7335564;19;110969;-80
2022/01/26 08:55:55;;;;;;;144.17;47.13;;;4.60;99.90;;;;;;7340057;19;115120;-79
2022/01/26 08:58:22;;;;;;;136.80;46.73;;;4.60;99.90;;;;;;7337550;19;111898;-80
2022/01/26 09:00:48;;;;;;;148.90;48.03;;;4.60;99.90;;;;;;7342647;19;113762;-80
2022/01/26 09:03:17;;;;;;;140.53;45.43;;;4.50;99.90;;;;;;7336755;19;115070;-80
2022/01/26 09:05:44;;;;;;;140.23;47.27;;;4.50;99.90;;;;;;7340694;19;113047;-80
2022/01/26 09:08:12;;;;;;;138.60;47.57;;;4.50;99.90;;;;;;7338178;19;112637;-80
2022/01/26 09:10:40;;;;;;;134.83;46.00;;;4.50;99.90;;;;;;7338400;19;111729;-80
2022/01/26 09:13:07;;;;;;;137.80;45.73;;;4.50;99.90;;;;;;7337186;19;112500;-79
2022/01/26 09:15:35;;;;;;;148.50;48.77;;;4.50;99.90;;;;;;7337068;19;112899;-79
2022/01/26 09:18:04;;;;;;;145.07;48.30;;;4.50;99.90;;;;;;7339334;19;112088;-80
2022/01/26 09:20:36;;;;;;;130.90;46.53;;;4.50;99.90;;;;;;7337196;19;112037;-80
2022/01/26 09:23:03;;;;;;;141.10;47.13;;;4.50;99.90;;;;;;7345165;19;112731;-80
2022/01/26 09:25:34;;;;;;;133.17;46.20;;;4.60;99.90;;;;;;7336435;19;111295;-79
2022/01/26 09:28:01;;;;;;;137.27;46.80;;;4.60;99.90;;;;;;7339325;19;111080;-79
2022/01/26 09:30:28;;;;;;;139.33;47.50;;;4.60;99.90;;;;;;7336199;19;112563;-80
2022/01/26 09:32:55;;;;;;;144.87;47.87;;;4.60;99.90;;;;;;7338325;19;114519;-79
2022/01/26 09:35:22;;;;;;;136.40;46.60;;;4.60;99.90;;;;;;7335226;19;113309;-79
2022/01/26 09:37:49;;;;;;;136.70;46.43;;;4.70;99.90;;;;;;7337735;19;113295;-80
2022/01/26 09:40:16;;;;;;;;;;;4.70;99.90;;;;;;7340445;19;112326;-79
2022/01/26 09:42:46;;;;;;;138.17;45.27;;;4.60;99.90;;;;;;7341312;19;110980;-80
2022/01/26 09:45:13;;;;;;;139.87;46.97;;;4.60;99.90;;;;;;7344428;19;111858;-79
2022/01/26 09:47:40;;;;;;;131.73;46.43;;;4.60;99.90;;;;;;7334113;19;112374;-79
2022/01/26 09:50:27;;;;;;;134.40;47.10;;;4.70;99.90;;;;;;7337992;19;113525;-79
2022/01/26 09:52:55;;;;;;;133.73;46.57;;;4.70;99.90;;;;;;7333832;19;112345;-79
2022/01/26 09:55:24;;;;;;;129.37;45.30;;;4.70;99.90;;;;;;7336392;19;112749;-79
2022/01/26 09:57:57;;;;;;;135.83;46.50;;;4.80;99.90;;;;;;7341238;19;112234;-80
2022/01/26 10:00:28;;;;;;;132.17;46.27;;;4.70;99.90;;;;;;7342350;19;112196;-80
2022/01/26 10:03:05;;;;;;;136.40;47.20;;;4.80;99.90;;;;;;7345652;19;113814;-80
2022/01/26 10:05:43;;;;;;;134.87;48.30;;;4.80;99.90;;;;;;7341822;19;110545;-80
2022/01/26 10:19:09;;;;;;;134.43;46.57;;;4.90;99.90;;;;;;7340224;19;112031;-80
2022/01/26 10:21:48;;;;;;;134.10;48.27;;;4.90;99.90;;;;;;7342076;19;112390;-80
2022/01/26 10:24:16;;;;;;;131.80;47.40;;;4.90;99.90;;;;;;7342496;19;114910;-80
2022/01/26 10:26:49;;;;;;;128.97;47.87;;;5.00;99.90;;;;;;7341358;19;112146;-80
2022/01/26 10:29:16;;;;;;;126.90;46.20;;;5.00;99.90;;;;;;7350503;19;113913;-80
2022/01/26 10:31:43;;;;;;;121.97;45.97;;;5.00;99.90;;;;;;7341714;19;110562;-79
2022/01/26 10:34:14;;;;;;;120.90;45.30;;;5.00;99.90;;;;;;7343765;19;112572;-80
2022/01/26 10:36:46;;;;;;;129.27;45.77;;;5.00;99.90;;;;;;7340878;19;112272;-79
2022/01/26 10:39:23;;;;;;;129.80;47.30;;;5.00;99.90;;;;;;7344075;19;112536;-80
2022/01/26 10:41:53;;;;;;;127.70;45.67;;;5.10;99.90;;;;;;7342129;19;112082;-79
2022/01/26 10:44:30;;;;;;;122.23;44.57;;;5.10;99.90;;;;;;7339428;19;114022;-79
2022/01/26 10:47:03;;;;;;;128.53;46.33;;;5.20;99.90;;;;;;7344489;19;110263;-80
2022/01/26 10:54:49;;;;;;;118.53;42.63;;;5.20;99.90;;;;;;7340576;19;112404;-80
2022/01/26 10:57:18;;;;;;;109.10;40.50;;;5.10;99.90;;;;;;7341067;19;111202;-80
2022/01/26 10:59:47;;;;;;;118.03;44.17;;;5.20;99.90;;;;;;7339447;19;112092;-80
2022/01/26 11:02:21;;;;;;;116.50;44.57;;;5.20;99.90;;;;;;7340442;19;112940;-80
2022/01/26 11:04:48;;;;;;;110.03;43.67;;;5.20;99.90;;;;;;7343779;19;112906;-80
2022/01/26 11:07:16;;;;;;;118.63;43.87;;;5.30;99.90;;;;;;7340221;19;111960;-80
2022/01/26 11:09:46;;;;;;;108.77;42.33;;;5.30;99.90;;;;;;7340878;19;110818;-80
2022/01/26 11:12:15;;;;;;;108.93;43.33;;;5.30;99.90;;;;;;7339394;19;113072;-81
2022/01/26 11:14:51;;;;;;;109.73;42.47;;;5.30;99.90;;;;;;7346750;19;112216;-80
2022/01/26 11:17:36;;;;;;;111.73;44.00;;;5.30;99.90;;;;;;7342558;19;112955;-80
2022/01/26 11:20:34;;;;;;;113.87;43.60;;;5.40;99.90;;;;;;7338896;19;115683;-80
2022/01/26 11:23:04;;;;;;;108.65;41.33;;;5.40;99.90;;;;;;7342993;19;112520;-80
2022/01/26 11:25:42;;;;;;;112.27;42.67;;;5.40;99.90;;;;;;7339080;19;112698;-80
2022/01/26 11:28:22;;;;;;;108.17;42.73;;;5.40;99.90;;;;;;7336286;19;112336;-80
2022/01/26 11:30:51;;;;;;;114.20;44.20;;;5.40;99.90;;;;;;7340785;19;112711;-80
2022/01/26 11:33:22;;;;;;;110.27;43.43;;;5.40;99.90;;;;;;7338038;19;112785;-80
2022/01/26 11:35:51;;;;;;;106.30;42.30;;;5.40;99.90;;;;;;7336144;19;112096;-80
2022/01/26 11:47:10;;;;;;;101.80;39.23;;;5.40;99.90;;;;;;7339448;19;112930;-79
2022/01/26 11:49:39;;;;;;;100.13;40.83;;;5.40;99.90;;;;;;7341152;19;112151;-79
2022/01/26 11:52:18;;;;;;;100.77;39.80;;;5.50;99.90;;;;;;7339301;19;114437;-79
2022/01/26 11:54:53;;;;;;;93.70;39.37;;;5.50;99.90;;;;;;7341816;19;114260;-79
2022/01/26 11:57:48;;;;;;;99.87;40.00;;;5.60;99.90;;;;;;7335837;19;114279;-79
2022/01/26 12:00:32;;;;;;;97.77;38.43;;;5.60;99.90;;;;;;7339548;19;112309;-79
2022/01/26 12:03:00;;;;;;;96.93;38.33;;;5.60;99.90;;;;;;7346589;19;112708;-79
2022/01/26 12:05:27;;;;;;;97.27;39.40;;;5.60;99.90;;;;;;7338393;19;111933;-79
2022/01/26 12:07:57;;;;;;;93.27;38.97;;;5.60;99.90;;;;;;7341580;19;112365;-79
2022/01/26 12:10:29;;;;;;;92.43;38.80;;;5.60;99.90;;;;;;7337555;19;113311;-79
2022/01/26 12:13:12;;;;;;;105.70;39.57;;;5.60;99.90;;;;;;7341861;19;111963;-79
2022/01/26 12:16:16;;;;;;;96.63;39.47;;;5.60;99.90;;;;;;7336898;19;112758;-80
2022/01/26 12:18:45;;;;;;;89.27;37.03;;;5.60;99.90;;;;;;7339322;19;114567;-80
2022/01/26 12:33:20;;;;;;;91.30;36.73;;;5.60;99.90;;;;;;7338781;19;112099;-80
2022/01/26 12:35:57;;;;;;;92.37;37.40;;;5.60;99.90;;;;;;7339398;19;112218;-80
2022/01/26 12:43:43;;;;;;;93.60;37.33;;;5.60;99.90;;;;;;7340938;19;112223;-79
2022/01/26 12:46:16;;;;;;;91.80;38.00;;;5.60;99.90;;;;;;7338116;19;112382;-80
2022/01/26 12:48:52;;;;;;;100.67;38.97;;;5.60;99.90;;;;;;7344424;19;111787;-80
2022/01/26 12:51:20;;;;;;;95.83;37.40;;;5.60;99.90;;;;;;7336061;19;112427;-80
2022/01/26 12:53:52;;;;;;;92.90;37.40;;;5.50;99.90;;;;;;7337989;19;111782;-80
2022/01/26 12:56:19;;;;;;;89.10;38.83;;;5.50;99.90;;;;;;7336870;19;115332;-80
2022/01/26 12:58:46;;;;;;;99.77;40.73;;;5.50;99.90;;;;;;7338317;19;113080;-80
2022/01/26 13:01:18;;;;;;;97.43;40.40;;;5.50;99.90;;;;;;7336663;19;112296;-80
2022/01/26 13:03:54;;;;;;;94.60;38.80;;;5.50;99.90;;;;;;7337239;19;110750;-80
2022/01/26 13:06:23;;;;;;;105.67;40.57;;;5.60;99.90;;;;;;7337916;19;112806;-80
2022/01/26 13:08:58;;;;;;;96.57;39.57;;;5.60;99.90;;;;;;7335095;19;112155;-80
2022/01/26 13:11:33;;;;;;;98.13;39.47;;;5.60;99.90;;;;;;7345568;19;111660;-80
2022/01/26 13:14:15;;;;;;;94.53;39.63;;;5.60;99.90;;;;;;7336144;19;110827;-80
2022/01/26 13:20:39;;;;;;;96.67;39.57;;;5.60;99.90;;;;;;7337251;19;115157;-80
2022/01/26 13:23:35;;;;;;;101.73;41.07;;;5.60;99.90;;;;;;7336545;19;112432;-80
2022/01/26 13:31:35;;;;;;;105.57;42.13;;;5.70;99.90;;;;;;7337283;19;111815;-80
2022/01/26 13:55:56;;;;;;;100.67;41.17;;;5.60;99.90;;;;;;7327520;19;112772;-80
2022/01/26 14:01:20;;;;;;;94.23;39.73;;;5.60;99.90;;;;;;7342712;19;111640;-80
2022/01/26 14:03:51;;;;;;;96.97;39.07;;;5.60;99.90;;;;;;7333422;19;112381;-79
2022/01/26 14:06:19;;;;;;;101.37;39.93;;;5.60;99.90;;;;;;7334735;19;112032;-79
2022/01/26 14:08:46;;;;;;;103.27;40.03;;;5.60;99.90;;;;;;7334013;19;112513;-79
2022/01/26 14:11:13;;;;;;;104.80;39.93;;;5.50;99.90;;;;;;7337939;19;112704;-79
2022/01/26 14:13:40;;;;;;;98.07;39.60;;;5.60;99.90;;;;;;7332157;19;111751;-80
2022/01/26 14:16:10;;;;;;;92.93;39.97;;;5.60;99.90;;;;;;7336235;19;112130;-80
2022/01/26 14:19:00;;;;;;;96.97;41.37;;;5.70;99.90;;;;;;7334688;19;113801;-80
2022/01/26 14:21:33;;;;;;;97.03;39.77;;;5.70;99.90;;;;;;7332103;19;112649;-80
2022/01/26 14:26:49;;;;;;;97.77;40.50;;;5.70;99.90;;;;;;7334260;19;115095;-80
2022/01/26 14:29:24;;;;;;;100.13;41.20;;;5.70;99.90;;;;;;7338979;19;112530;-80
2022/01/26 14:35:00;;;;;;;99.63;41.50;;;5.70;99.90;;;;;;7336478;19;113036;-80
2022/01/26 14:51:10;;;;;;;102.90;41.63;;;5.70;99.90;;;;;;7341741;19;112367;-80
2022/01/26 15:40:46;;;;;;;101.37;39.53;;;5.70;99.90;;;;;;7339153;19;115068;-80
2022/01/26 15:43:40;;;;;;;98.57;38.57;;;5.70;99.90;;;;;;7340147;19;112412;-81
2022/01/26 15:49:18;;;;;;;105.00;39.60;;;5.60;99.90;;;;;;7338678;19;110598;-80
2022/01/26 15:51:53;;;;;;;99.57;39.50;;;5.60;99.90;;;;;;7341711;19;112211;-80
2022/01/26 16:08:25;;;;;;;99.37;37.60;;;5.50;99.90;;;;;;7340348;19;112637;-80
2022/01/26 16:36:08;;;;;;;105.50;37.30;;;5.60;99.90;;;;;;7340335;19;112153;-81
2022/01/26 16:38:46;;;;;;;98.87;37.27;;;5.60;99.90;;;;;;7336686;19;112858;-81
2022/01/26 16:52:51;;;;;;;108.43;38.17;;;5.60;99.90;;;;;;7330859;19;113497;-80
2022/01/26 18:49:10;;;;;;;88.30;34.40;;;5.50;99.90;;;;;;7332690;19;112835;-79
2022/01/26 18:49:40;;;;;;;94.57;35.13;;;5.50;99.90;;;;;;7341048;19;112375;-81
2022/01/26 18:52:08;;;;;;;83.60;33.07;;;5.50;99.90;;;;;;7331542;19;112044;-81
2022/01/26 18:54:38;;;;;;;87.43;34.63;;;5.60;99.90;;;;;;7331788;19;114784;-78
2022/01/26 18:57:08;;;;;;;87.10;34.20;;;5.60;99.90;;;;;;7327811;19;113265;-80
2022/01/26 18:59:35;;;;;;;88.77;34.50;;;5.60;99.90;;;;;;7333828;19;115002;-79
2022/01/26 19:02:03;;;;;;;82.93;33.73;;;5.60;99.90;;;;;;7328137;19;113100;-79
2022/01/26 19:04:48;;;;;;;87.10;34.93;;;5.60;99.90;;;;;;7330839;19;111817;-81
2022/01/26 19:07:15;;;;;;;87.73;34.67;;;5.60;99.90;;;;;;7327556;19;111812;-80
2022/01/26 19:09:46;;;;;;;83.70;34.33;;;5.60;99.90;;;;;;7328468;19;111983;-81
2022/01/26 19:12:16;;;;;;;80.03;34.17;;;5.60;99.90;;;;;;7327572;19;112616;-80
2022/01/26 19:14:50;;;;;;;81.33;34.50;;;5.60;99.90;;;;;;7325137;19;112317;-81
2022/01/26 19:17:24;;;;;;;83.87;34.57;;;5.60;99.90;;;;;;7328500;19;111648;-79